sensor_id;sensor_type;location;lat;lon;timestamp;P1;durP1;ratioP1;P2;durP2;ratioP2
65855;SDS011;52631;42.208;24.656;2023-04-03T00:01:13;7.70;;;4.45;;
65855;SDS011;52631;42.208;24.656;2023-04-03T00:03:41;6.85;;;3.60;;
65855;SDS011;52631;42.208;24.656;2023-04-03T00:06:06;6.45;;;3.10;;
65855;SDS011;52631;42.208;24.656;2023-04-03T00:08:33;5.55;;;2.92;;
65855;SDS011;52631;42.208;24.656;2023-04-03T00:10:59;4.80;;;2.72;;
65855;SDS011;52631;42.208;24.656;2023-04-03T00:13:25;5.18;;;2.97;;
65855;SDS011;52631;42.208;24.656;2023-04-03T00:15:51;5.68;;;2.97;;
65855;SDS011;52631;42.208;24.656;2023-04-03T00:18:16;4.63;;;2.70;;
65855;SDS011;52631;42.208;24.656;2023-04-03T00:20:42;4.70;;;2.70;;
65855;SDS011;52631;42.208;24.656;2023-04-03T00:23:08;5.35;;;2.50;;
65855;SDS011;52631;42.208;24.656;2023-04-03T00:25:33;5.28;;;2.92;;
65855;SDS011;52631;42.208;24.656;2023-04-03T00:27:59;5.05;;;2.88;;
65855;SDS011;52631;42.208;24.656;2023-04-03T00:30:24;4.65;;;2.58;;
65855;SDS011;52631;42.208;24.656;2023-04-03T00:32:51;4.53;;;2.75;;
65855;SDS011;52631;42.208;24.656;2023-04-03T00:35:18;4.75;;;2.15;;
65855;SDS011;52631;42.208;24.656;2023-04-03T00:37:44;4.80;;;2.33;;
65855;SDS011;52631;42.208;24.656;2023-04-03T00:40:12;6.03;;;2.22;;
65855;SDS011;52631;42.208;24.656;2023-04-03T00:42:39;4.75;;;2.17;;
65855;SDS011;52631;42.208;24.656;2023-04-03T00:47:30;5.20;;;2.30;;
65855;SDS011;52631;42.208;24.656;2023-04-03T00:49:56;3.50;;;1.85;;
65855;SDS011;52631;42.208;24.656;2023-04-03T00:52:23;4.45;;;2.00;;
65855;SDS011;52631;42.208;24.656;2023-04-03T00:54:52;5.10;;;2.00;;
65855;SDS011;52631;42.208;24.656;2023-04-03T00:57:20;3.97;;;2.10;;
65855;SDS011;52631;42.208;24.656;2023-04-03T00:59:46;4.28;;;2.30;;
65855;SDS011;52631;42.208;24.656;2023-04-03T01:02:14;4.18;;;1.90;;
65855;SDS011;52631;42.208;24.656;2023-04-03T01:04:41;4.13;;;2.13;;
65855;SDS011;52631;42.208;24.656;2023-04-03T01:07:08;6.55;;;1.80;;
65855;SDS011;52631;42.208;24.656;2023-04-03T01:09:36;4.57;;;2.13;;
65855;SDS011;52631;42.208;24.656;2023-04-03T01:12:16;3.80;;;1.90;;
65855;SDS011;52631;42.208;24.656;2023-04-03T01:14:43;4.18;;;1.80;;
65855;SDS011;52631;42.208;24.656;2023-04-03T01:17:29;3.38;;;2.00;;
65855;SDS011;52631;42.208;24.656;2023-04-03T01:25:56;4.45;;;2.00;;
65855;SDS011;52631;42.208;24.656;2023-04-03T01:28:24;4.72;;;2.20;;
65855;SDS011;52631;42.208;24.656;2023-04-03T01:33:45;4.18;;;1.95;;
65855;SDS011;52631;42.208;24.656;2023-04-03T01:36:17;4.97;;;1.92;;
65855;SDS011;52631;42.208;24.656;2023-04-03T01:38:48;3.72;;;2.00;;
65855;SDS011;52631;42.208;24.656;2023-04-03T01:41:13;4.35;;;2.20;;
65855;SDS011;52631;42.208;24.656;2023-04-03T01:43:40;4.07;;;1.95;;
65855;SDS011;52631;42.208;24.656;2023-04-03T01:46:05;4.25;;;2.00;;
65855;SDS011;52631;42.208;24.656;2023-04-03T01:48:32;4.10;;;1.90;;
65855;SDS011;52631;42.208;24.656;2023-04-03T01:50:58;4.68;;;2.00;;
65855;SDS011;52631;42.208;24.656;2023-04-03T01:53:23;3.10;;;1.60;;
65855;SDS011;52631;42.208;24.656;2023-04-03T01:55:49;4.43;;;2.00;;
65855;SDS011;52631;42.208;24.656;2023-04-03T01:58:14;4.03;;;1.95;;
65855;SDS011;52631;42.208;24.656;2023-04-03T02:00:40;5.78;;;2.17;;
65855;SDS011;52631;42.208;24.656;2023-04-03T02:03:05;3.60;;;2.03;;
65855;SDS011;52631;42.208;24.656;2023-04-03T02:05:31;7.82;;;3.50;;
65855;SDS011;52631;42.208;24.656;2023-04-03T02:07:57;7.78;;;3.40;;
65855;SDS011;52631;42.208;24.656;2023-04-03T02:10:23;10.30;;;4.88;;
65855;SDS011;52631;42.208;24.656;2023-04-03T02:12:48;19.98;;;8.48;;
65855;SDS011;52631;42.208;24.656;2023-04-03T02:15:14;24.80;;;10.27;;
65855;SDS011;52631;42.208;24.656;2023-04-03T02:17:39;13.05;;;6.15;;
65855;SDS011;52631;42.208;24.656;2023-04-03T02:20:05;5.40;;;3.00;;
65855;SDS011;52631;42.208;24.656;2023-04-03T02:22:31;5.50;;;2.35;;
65855;SDS011;52631;42.208;24.656;2023-04-03T02:24:56;3.97;;;2.28;;
65855;SDS011;52631;42.208;24.656;2023-04-03T02:27:22;6.35;;;2.38;;
65855;SDS011;52631;42.208;24.656;2023-04-03T02:29:47;5.18;;;2.70;;
65855;SDS011;52631;42.208;24.656;2023-04-03T02:32:13;5.25;;;2.80;;
65855;SDS011;52631;42.208;24.656;2023-04-03T02:34:38;5.85;;;3.03;;
65855;SDS011;52631;42.208;24.656;2023-04-03T02:37:03;5.78;;;2.83;;
65855;SDS011;52631;42.208;24.656;2023-04-03T02:39:29;5.43;;;2.60;;
65855;SDS011;52631;42.208;24.656;2023-04-03T02:41:54;4.68;;;2.80;;
65855;SDS011;52631;42.208;24.656;2023-04-03T02:44:20;6.82;;;3.70;;
65855;SDS011;52631;42.208;24.656;2023-04-03T02:46:45;6.07;;;3.10;;
65855;SDS011;52631;42.208;24.656;2023-04-03T02:49:11;6.18;;;3.00;;
65855;SDS011;52631;42.208;24.656;2023-04-03T02:51:36;6.00;;;3.25;;
65855;SDS011;52631;42.208;24.656;2023-04-03T02:54:02;6.25;;;3.20;;
65855;SDS011;52631;42.208;24.656;2023-04-03T02:56:28;9.90;;;3.72;;
65855;SDS011;52631;42.208;24.656;2023-04-03T02:58:53;6.10;;;3.58;;
65855;SDS011;52631;42.208;24.656;2023-04-03T03:01:19;6.38;;;3.45;;
65855;SDS011;52631;42.208;24.656;2023-04-03T03:03:44;8.00;;;3.65;;
65855;SDS011;52631;42.208;24.656;2023-04-03T03:06:12;6.97;;;3.60;;
65855;SDS011;52631;42.208;24.656;2023-04-03T03:08:38;5.00;;;3.53;;
65855;SDS011;52631;42.208;24.656;2023-04-03T03:11:04;6.65;;;4.05;;
65855;SDS011;52631;42.208;24.656;2023-04-03T03:13:30;5.40;;;3.45;;
65855;SDS011;52631;42.208;24.656;2023-04-03T03:15:56;6.07;;;3.60;;
65855;SDS011;52631;42.208;24.656;2023-04-03T03:18:22;7.70;;;3.70;;
65855;SDS011;52631;42.208;24.656;2023-04-03T03:20:51;7.05;;;3.58;;
65855;SDS011;52631;42.208;24.656;2023-04-03T03:23:18;5.18;;;3.35;;
65855;SDS011;52631;42.208;24.656;2023-04-03T03:25:43;5.68;;;2.83;;
65855;SDS011;52631;42.208;24.656;2023-04-03T03:28:08;5.65;;;3.35;;
65855;SDS011;52631;42.208;24.656;2023-04-03T03:30:34;7.80;;;4.13;;
65855;SDS011;52631;42.208;24.656;2023-04-03T03:33:00;7.03;;;3.70;;
65855;SDS011;52631;42.208;24.656;2023-04-03T03:35:26;6.63;;;3.95;;
65855;SDS011;52631;42.208;24.656;2023-04-03T03:37:51;5.97;;;3.22;;
65855;SDS011;52631;42.208;24.656;2023-04-03T03:40:17;5.78;;;3.13;;
65855;SDS011;52631;42.208;24.656;2023-04-03T03:42:42;6.90;;;3.58;;
65855;SDS011;52631;42.208;24.656;2023-04-03T03:45:08;5.18;;;2.65;;
65855;SDS011;52631;42.208;24.656;2023-04-03T03:47:34;7.25;;;3.58;;
65855;SDS011;52631;42.208;24.656;2023-04-03T03:49:59;5.50;;;3.40;;
65855;SDS011;52631;42.208;24.656;2023-04-03T03:52:25;5.45;;;3.22;;
65855;SDS011;52631;42.208;24.656;2023-04-03T03:54:51;6.18;;;3.33;;
65855;SDS011;52631;42.208;24.656;2023-04-03T03:57:16;5.32;;;3.20;;
65855;SDS011;52631;42.208;24.656;2023-04-03T03:59:42;6.25;;;3.50;;
65855;SDS011;52631;42.208;24.656;2023-04-03T04:02:09;5.93;;;3.83;;
65855;SDS011;52631;42.208;24.656;2023-04-03T04:04:35;9.85;;;4.20;;
65855;SDS011;52631;42.208;24.656;2023-04-03T04:07:01;6.75;;;3.80;;
65855;SDS011;52631;42.208;24.656;2023-04-03T04:09:26;6.57;;;4.88;;
65855;SDS011;52631;42.208;24.656;2023-04-03T04:11:52;6.22;;;3.92;;
65855;SDS011;52631;42.208;24.656;2023-04-03T04:14:18;6.70;;;3.45;;
65855;SDS011;52631;42.208;24.656;2023-04-03T04:16:45;7.25;;;3.92;;
65855;SDS011;52631;42.208;24.656;2023-04-03T04:19:11;6.18;;;3.72;;
65855;SDS011;52631;42.208;24.656;2023-04-03T04:21:37;7.22;;;4.55;;
65855;SDS011;52631;42.208;24.656;2023-04-03T04:24:02;14.98;;;11.40;;
65855;SDS011;52631;42.208;24.656;2023-04-03T04:26:28;12.77;;;6.18;;
65855;SDS011;52631;42.208;24.656;2023-04-03T04:28:53;19.05;;;8.75;;
65855;SDS011;52631;42.208;24.656;2023-04-03T04:31:19;17.17;;;10.20;;
65855;SDS011;52631;42.208;24.656;2023-04-03T04:33:44;19.00;;;11.50;;
65855;SDS011;52631;42.208;24.656;2023-04-03T04:36:10;15.35;;;7.90;;
65855;SDS011;52631;42.208;24.656;2023-04-03T04:38:35;10.20;;;5.07;;
65855;SDS011;52631;42.208;24.656;2023-04-03T04:41:01;7.03;;;4.10;;
65855;SDS011;52631;42.208;24.656;2023-04-03T04:43:26;6.13;;;3.40;;
65855;SDS011;52631;42.208;24.656;2023-04-03T04:46:02;5.32;;;3.15;;
65855;SDS011;52631;42.208;24.656;2023-04-03T04:48:31;5.82;;;3.03;;
65855;SDS011;52631;42.208;24.656;2023-04-03T04:50:57;5.43;;;3.25;;
65855;SDS011;52631;42.208;24.656;2023-04-03T04:53:22;5.97;;;3.40;;
65855;SDS011;52631;42.208;24.656;2023-04-03T04:55:48;5.07;;;3.08;;
65855;SDS011;52631;42.208;24.656;2023-04-03T04:58:13;5.88;;;3.30;;
65855;SDS011;52631;42.208;24.656;2023-04-03T05:00:39;9.52;;;3.92;;
65855;SDS011;52631;42.208;24.656;2023-04-03T05:03:04;11.23;;;4.93;;
65855;SDS011;52631;42.208;24.656;2023-04-03T05:05:30;15.30;;;6.10;;
65855;SDS011;52631;42.208;24.656;2023-04-03T05:07:55;9.55;;;4.80;;
65855;SDS011;52631;42.208;24.656;2023-04-03T05:10:21;10.32;;;4.05;;
65855;SDS011;52631;42.208;24.656;2023-04-03T05:12:46;7.57;;;3.38;;
65855;SDS011;52631;42.208;24.656;2023-04-03T05:15:12;9.43;;;3.75;;
65855;SDS011;52631;42.208;24.656;2023-04-03T05:17:37;9.05;;;3.40;;
65855;SDS011;52631;42.208;24.656;2023-04-03T05:20:03;10.77;;;4.07;;
65855;SDS011;52631;42.208;24.656;2023-04-03T05:22:30;4.75;;;3.30;;
65855;SDS011;52631;42.208;24.656;2023-04-03T05:24:55;6.88;;;3.65;;
65855;SDS011;52631;42.208;24.656;2023-04-03T05:27:21;6.35;;;3.13;;
65855;SDS011;52631;42.208;24.656;2023-04-03T05:29:48;5.97;;;3.30;;
65855;SDS011;52631;42.208;24.656;2023-04-03T05:32:14;4.60;;;3.30;;
65855;SDS011;52631;42.208;24.656;2023-04-03T05:34:40;6.45;;;3.58;;
65855;SDS011;52631;42.208;24.656;2023-04-03T05:37:05;6.72;;;3.17;;
65855;SDS011;52631;42.208;24.656;2023-04-03T05:39:31;6.07;;;3.10;;
65855;SDS011;52631;42.208;24.656;2023-04-03T05:41:56;5.00;;;3.15;;
65855;SDS011;52631;42.208;24.656;2023-04-03T05:44:22;5.20;;;2.92;;
65855;SDS011;52631;42.208;24.656;2023-04-03T05:46:47;5.85;;;3.00;;
65855;SDS011;52631;42.208;24.656;2023-04-03T05:49:13;6.80;;;3.10;;
65855;SDS011;52631;42.208;24.656;2023-04-03T05:51:39;5.60;;;3.25;;
65855;SDS011;52631;42.208;24.656;2023-04-03T05:56:44;7.80;;;3.83;;
65855;SDS011;52631;42.208;24.656;2023-04-03T05:59:10;6.72;;;3.35;;
65855;SDS011;52631;42.208;24.656;2023-04-03T06:01:36;5.60;;;3.30;;
65855;SDS011;52631;42.208;24.656;2023-04-03T06:04:02;7.68;;;3.00;;
65855;SDS011;52631;42.208;24.656;2023-04-03T06:06:42;7.03;;;3.35;;
65855;SDS011;52631;42.208;24.656;2023-04-03T06:09:09;6.60;;;3.30;;
65855;SDS011;52631;42.208;24.656;2023-04-03T06:11:34;5.45;;;3.33;;
65855;SDS011;52631;42.208;24.656;2023-04-03T06:14:00;6.07;;;3.08;;
65855;SDS011;52631;42.208;24.656;2023-04-03T06:16:26;6.00;;;3.03;;
65855;SDS011;52631;42.208;24.656;2023-04-03T06:18:51;6.50;;;3.05;;
65855;SDS011;52631;42.208;24.656;2023-04-03T06:21:17;4.38;;;2.95;;
65855;SDS011;52631;42.208;24.656;2023-04-03T06:23:42;6.15;;;2.72;;
65855;SDS011;52631;42.208;24.656;2023-04-03T06:26:08;5.47;;;2.88;;
65855;SDS011;52631;42.208;24.656;2023-04-03T06:28:33;6.00;;;3.10;;
65855;SDS011;52631;42.208;24.656;2023-04-03T06:30:59;5.80;;;2.90;;
65855;SDS011;52631;42.208;24.656;2023-04-03T06:33:25;6.93;;;2.70;;
65855;SDS011;52631;42.208;24.656;2023-04-03T06:35:55;6.50;;;2.70;;
65855;SDS011;52631;42.208;24.656;2023-04-03T06:38:22;4.43;;;2.55;;
65855;SDS011;52631;42.208;24.656;2023-04-03T06:40:47;3.80;;;2.03;;
65855;SDS011;52631;42.208;24.656;2023-04-03T06:43:13;3.38;;;2.08;;
65855;SDS011;52631;42.208;24.656;2023-04-03T06:45:38;4.32;;;2.08;;
65855;SDS011;52631;42.208;24.656;2023-04-03T06:48:04;4.20;;;2.40;;
65855;SDS011;52631;42.208;24.656;2023-04-03T06:50:30;6.15;;;2.92;;
65855;SDS011;52631;42.208;24.656;2023-04-03T06:52:56;5.30;;;2.80;;
65855;SDS011;52631;42.208;24.656;2023-04-03T06:55:21;4.63;;;2.63;;
65855;SDS011;52631;42.208;24.656;2023-04-03T06:57:47;6.65;;;2.80;;
65855;SDS011;52631;42.208;24.656;2023-04-03T07:00:13;6.72;;;3.28;;
65855;SDS011;52631;42.208;24.656;2023-04-03T07:02:39;10.45;;;4.28;;
65855;SDS011;52631;42.208;24.656;2023-04-03T07:05:05;7.68;;;4.20;;
65855;SDS011;52631;42.208;24.656;2023-04-03T07:07:31;5.55;;;3.00;;
65855;SDS011;52631;42.208;24.656;2023-04-03T07:09:59;8.57;;;3.33;;
65855;SDS011;52631;42.208;24.656;2023-04-03T07:12:24;4.43;;;2.60;;
65855;SDS011;52631;42.208;24.656;2023-04-03T07:14:51;5.80;;;2.58;;
65855;SDS011;52631;42.208;24.656;2023-04-03T07:17:17;14.63;;;3.28;;
65855;SDS011;52631;42.208;24.656;2023-04-03T07:19:43;4.95;;;2.58;;
65855;SDS011;52631;42.208;24.656;2023-04-03T07:22:08;4.80;;;2.78;;
65855;SDS011;52631;42.208;24.656;2023-04-03T07:24:36;11.05;;;3.20;;
65855;SDS011;52631;42.208;24.656;2023-04-03T07:27:01;12.18;;;3.40;;
65855;SDS011;52631;42.208;24.656;2023-04-03T07:29:28;4.85;;;2.95;;
65855;SDS011;52631;42.208;24.656;2023-04-03T07:31:53;23.88;;;4.18;;
65855;SDS011;52631;42.208;24.656;2023-04-03T07:34:20;14.77;;;3.70;;
65855;SDS011;52631;42.208;24.656;2023-04-03T07:36:46;16.67;;;5.15;;
65855;SDS011;52631;42.208;24.656;2023-04-03T07:39:11;5.85;;;2.70;;
65855;SDS011;52631;42.208;24.656;2023-04-03T07:41:37;5.13;;;2.92;;
65855;SDS011;52631;42.208;24.656;2023-04-03T07:44:03;5.05;;;3.00;;
65855;SDS011;52631;42.208;24.656;2023-04-03T07:46:29;7.18;;;3.70;;
65855;SDS011;52631;42.208;24.656;2023-04-03T07:48:55;6.10;;;3.50;;
65855;SDS011;52631;42.208;24.656;2023-04-03T07:51:20;6.50;;;3.10;;
65855;SDS011;52631;42.208;24.656;2023-04-03T07:53:46;7.32;;;3.47;;
65855;SDS011;52631;42.208;24.656;2023-04-03T07:56:11;7.40;;;3.17;;
65855;SDS011;52631;42.208;24.656;2023-04-03T07:58:37;11.20;;;3.63;;
65855;SDS011;52631;42.208;24.656;2023-04-03T08:01:04;5.68;;;3.22;;
65855;SDS011;52631;42.208;24.656;2023-04-03T08:03:29;12.32;;;3.70;;
65855;SDS011;52631;42.208;24.656;2023-04-03T08:05:54;5.75;;;3.20;;
65855;SDS011;52631;42.208;24.656;2023-04-03T08:08:28;5.57;;;2.95;;
65855;SDS011;52631;42.208;24.656;2023-04-03T08:10:55;7.35;;;3.15;;
65855;SDS011;52631;42.208;24.656;2023-04-03T08:13:20;5.95;;;2.78;;
65855;SDS011;52631;42.208;24.656;2023-04-03T08:15:47;6.93;;;2.78;;
65855;SDS011;52631;42.208;24.656;2023-04-03T08:18:13;4.68;;;2.30;;
65855;SDS011;52631;42.208;24.656;2023-04-03T08:20:39;8.80;;;2.90;;
65855;SDS011;52631;42.208;24.656;2023-04-03T08:23:06;6.20;;;2.65;;
65855;SDS011;52631;42.208;24.656;2023-04-03T08:25:31;4.07;;;2.20;;
65855;SDS011;52631;42.208;24.656;2023-04-03T08:27:57;5.57;;;2.40;;
65855;SDS011;52631;42.208;24.656;2023-04-03T08:30:23;5.32;;;2.50;;
65855;SDS011;52631;42.208;24.656;2023-04-03T08:32:48;5.03;;;2.65;;
65855;SDS011;52631;42.208;24.656;2023-04-03T08:35:14;5.07;;;2.28;;
65855;SDS011;52631;42.208;24.656;2023-04-03T08:37:40;4.78;;;2.30;;
65855;SDS011;52631;42.208;24.656;2023-04-03T08:40:06;5.80;;;2.47;;
65855;SDS011;52631;42.208;24.656;2023-04-03T08:45:17;5.97;;;2.90;;
65855;SDS011;52631;42.208;24.656;2023-04-03T08:48:23;5.53;;;2.83;;
65855;SDS011;52631;42.208;24.656;2023-04-03T08:50:53;5.30;;;3.03;;
65855;SDS011;52631;42.208;24.656;2023-04-03T08:53:22;7.13;;;2.70;;
65855;SDS011;52631;42.208;24.656;2023-04-03T08:55:52;4.68;;;2.80;;
65855;SDS011;52631;42.208;24.656;2023-04-03T08:58:22;4.25;;;2.72;;
65855;SDS011;52631;42.208;24.656;2023-04-03T09:01:02;7.28;;;2.75;;
65855;SDS011;52631;42.208;24.656;2023-04-03T09:03:33;5.47;;;2.70;;
65855;SDS011;52631;42.208;24.656;2023-04-03T09:06:05;4.68;;;2.30;;
65855;SDS011;52631;42.208;24.656;2023-04-03T09:08:40;5.63;;;2.75;;
65855;SDS011;52631;42.208;24.656;2023-04-03T09:13:40;5.25;;;2.00;;
65855;SDS011;52631;42.208;24.656;2023-04-03T09:21:45;5.88;;;2.25;;
65855;SDS011;52631;42.208;24.656;2023-04-03T09:24:12;6.82;;;2.70;;
65855;SDS011;52631;42.208;24.656;2023-04-03T09:29:24;6.47;;;3.17;;
65855;SDS011;52631;42.208;24.656;2023-04-03T09:31:52;7.30;;;3.53;;
65855;SDS011;52631;42.208;24.656;2023-04-03T09:34:31;9.85;;;3.72;;
65855;SDS011;52631;42.208;24.656;2023-04-03T09:37:00;11.18;;;4.18;;
65855;SDS011;52631;42.208;24.656;2023-04-03T09:39:30;7.75;;;4.75;;
65855;SDS011;52631;42.208;24.656;2023-04-03T09:44:32;13.75;;;5.05;;
65855;SDS011;52631;42.208;24.656;2023-04-03T09:52:39;9.15;;;4.13;;
65855;SDS011;52631;42.208;24.656;2023-04-03T09:55:18;7.70;;;3.55;;
65855;SDS011;52631;42.208;24.656;2023-04-03T09:57:51;5.85;;;3.35;;
65855;SDS011;52631;42.208;24.656;2023-04-03T10:00:21;13.18;;;3.75;;
65855;SDS011;52631;42.208;24.656;2023-04-03T10:02:53;6.88;;;3.92;;
65855;SDS011;52631;42.208;24.656;2023-04-03T10:05:39;5.55;;;3.65;;
65855;SDS011;52631;42.208;24.656;2023-04-03T10:10:38;8.75;;;3.63;;
65855;SDS011;52631;42.208;24.656;2023-04-03T10:13:11;10.43;;;4.20;;
65855;SDS011;52631;42.208;24.656;2023-04-03T10:16:01;6.60;;;4.05;;
65855;SDS011;52631;42.208;24.656;2023-04-03T10:18:44;8.63;;;4.10;;
65855;SDS011;52631;42.208;24.656;2023-04-03T10:24:14;10.40;;;4.22;;
65855;SDS011;52631;42.208;24.656;2023-04-03T10:34:28;9.48;;;3.42;;
65855;SDS011;52631;42.208;24.656;2023-04-03T10:44:52;8.35;;;3.97;;
65855;SDS011;52631;42.208;24.656;2023-04-03T10:50:40;7.90;;;3.50;;
65855;SDS011;52631;42.208;24.656;2023-04-03T10:53:31;6.93;;;4.03;;
65855;SDS011;52631;42.208;24.656;2023-04-03T10:58:44;8.73;;;3.38;;
65855;SDS011;52631;42.208;24.656;2023-04-03T11:01:15;7.32;;;4.07;;
65855;SDS011;52631;42.208;24.656;2023-04-03T11:03:44;6.10;;;3.75;;
65855;SDS011;52631;42.208;24.656;2023-04-03T11:06:12;8.73;;;3.75;;
65855;SDS011;52631;42.208;24.656;2023-04-03T11:08:48;6.53;;;3.58;;
65855;SDS011;52631;42.208;24.656;2023-04-03T11:11:29;7.88;;;3.75;;
65855;SDS011;52631;42.208;24.656;2023-04-03T11:14:01;7.75;;;3.80;;
65855;SDS011;52631;42.208;24.656;2023-04-03T11:16:31;7.47;;;4.30;;
65855;SDS011;52631;42.208;24.656;2023-04-03T11:19:18;9.52;;;4.05;;
65855;SDS011;52631;42.208;24.656;2023-04-03T11:21:54;8.43;;;4.30;;
65855;SDS011;52631;42.208;24.656;2023-04-03T11:24:25;8.00;;;4.32;;
65855;SDS011;52631;42.208;24.656;2023-04-03T11:26:51;6.03;;;4.18;;
65855;SDS011;52631;42.208;24.656;2023-04-03T11:29:19;8.38;;;4.53;;
65855;SDS011;52631;42.208;24.656;2023-04-03T11:36:55;8.20;;;5.63;;
65855;SDS011;52631;42.208;24.656;2023-04-03T11:41:55;6.82;;;4.80;;
65855;SDS011;52631;42.208;24.656;2023-04-03T11:44:51;8.43;;;5.18;;
65855;SDS011;52631;42.208;24.656;2023-04-03T11:55:43;7.13;;;4.43;;
65855;SDS011;52631;42.208;24.656;2023-04-03T11:58:13;8.40;;;4.43;;
65855;SDS011;52631;42.208;24.656;2023-04-03T12:04:06;8.93;;;5.18;;
65855;SDS011;52631;42.208;24.656;2023-04-03T12:16:23;6.82;;;4.68;;
65855;SDS011;52631;42.208;24.656;2023-04-03T12:29:24;11.57;;;6.80;;
65855;SDS011;52631;42.208;24.656;2023-04-03T12:37:29;10.52;;;5.90;;
65855;SDS011;52631;42.208;24.656;2023-04-03T12:40:07;9.05;;;5.70;;
65855;SDS011;52631;42.208;24.656;2023-04-03T12:45:52;9.02;;;6.53;;
65855;SDS011;52631;42.208;24.656;2023-04-03T12:48:27;9.80;;;5.47;;
65855;SDS011;52631;42.208;24.656;2023-04-03T12:50:55;11.38;;;6.95;;
65855;SDS011;52631;42.208;24.656;2023-04-03T12:53:42;10.25;;;6.13;;
65855;SDS011;52631;42.208;24.656;2023-04-03T12:56:24;12.57;;;5.20;;
65855;SDS011;52631;42.208;24.656;2023-04-03T12:58:52;8.23;;;5.65;;
65855;SDS011;52631;42.208;24.656;2023-04-03T13:01:24;10.60;;;7.22;;
65855;SDS011;52631;42.208;24.656;2023-04-03T13:03:54;12.98;;;7.20;;
65855;SDS011;52631;42.208;24.656;2023-04-03T13:06:28;11.03;;;7.57;;
65855;SDS011;52631;42.208;24.656;2023-04-03T13:08:58;11.63;;;6.88;;
65855;SDS011;52631;42.208;24.656;2023-04-03T13:11:25;10.48;;;6.18;;
65855;SDS011;52631;42.208;24.656;2023-04-03T13:13:59;10.88;;;5.50;;
65855;SDS011;52631;42.208;24.656;2023-04-03T13:16:28;10.68;;;6.63;;
65855;SDS011;52631;42.208;24.656;2023-04-03T13:18:55;10.02;;;6.57;;
65855;SDS011;52631;42.208;24.656;2023-04-03T13:21:24;10.13;;;7.13;;
65855;SDS011;52631;42.208;24.656;2023-04-03T13:23:53;13.77;;;8.57;;
65855;SDS011;52631;42.208;24.656;2023-04-03T13:26:22;9.27;;;6.43;;
65855;SDS011;52631;42.208;24.656;2023-04-03T13:28:49;10.45;;;7.90;;
65855;SDS011;52631;42.208;24.656;2023-04-03T13:34:29;10.93;;;7.82;;
65855;SDS011;52631;42.208;24.656;2023-04-03T13:36:40;15.23;;;9.07;;
65855;SDS011;52631;42.208;24.656;2023-04-03T13:41:59;12.93;;;8.48;;
65855;SDS011;52631;42.208;24.656;2023-04-03T13:47:18;12.73;;;8.45;;
65855;SDS011;52631;42.208;24.656;2023-04-03T13:52:43;10.00;;;7.00;;
65855;SDS011;52631;42.208;24.656;2023-04-03T13:55:29;10.50;;;7.45;;
65855;SDS011;52631;42.208;24.656;2023-04-03T13:58:00;9.57;;;7.97;;
65855;SDS011;52631;42.208;24.656;2023-04-03T14:03:02;15.57;;;9.73;;
65855;SDS011;52631;42.208;24.656;2023-04-03T14:05:28;12.50;;;7.90;;
65855;SDS011;52631;42.208;24.656;2023-04-03T14:07:54;13.90;;;7.90;;
65855;SDS011;52631;42.208;24.656;2023-04-03T14:10:20;11.35;;;7.95;;
65855;SDS011;52631;42.208;24.656;2023-04-03T14:12:46;11.55;;;7.43;;
65855;SDS011;52631;42.208;24.656;2023-04-03T14:17:50;11.25;;;7.45;;
65855;SDS011;52631;42.208;24.656;2023-04-03T14:20:17;11.45;;;7.32;;
65855;SDS011;52631;42.208;24.656;2023-04-03T14:22:44;13.52;;;8.77;;
65855;SDS011;52631;42.208;24.656;2023-04-03T14:25:10;15.38;;;8.68;;
65855;SDS011;52631;42.208;24.656;2023-04-03T14:27:37;15.38;;;8.80;;
65855;SDS011;52631;42.208;24.656;2023-04-03T14:30:06;13.90;;;9.05;;
65855;SDS011;52631;42.208;24.656;2023-04-03T14:32:33;11.88;;;8.02;;
65855;SDS011;52631;42.208;24.656;2023-04-03T14:35:08;12.73;;;7.90;;
65855;SDS011;52631;42.208;24.656;2023-04-03T14:37:34;15.85;;;8.52;;
65855;SDS011;52631;42.208;24.656;2023-04-03T14:40:02;16.00;;;9.15;;
65855;SDS011;52631;42.208;24.656;2023-04-03T14:42:31;15.48;;;10.07;;
65855;SDS011;52631;42.208;24.656;2023-04-03T14:44:59;13.52;;;8.63;;
65855;SDS011;52631;42.208;24.656;2023-04-03T14:47:27;12.93;;;8.65;;
65855;SDS011;52631;42.208;24.656;2023-04-03T14:49:53;14.05;;;9.00;;
65855;SDS011;52631;42.208;24.656;2023-04-03T14:52:27;12.63;;;8.93;;
65855;SDS011;52631;42.208;24.656;2023-04-03T14:54:55;13.77;;;9.65;;
65855;SDS011;52631;42.208;24.656;2023-04-03T14:57:25;14.02;;;9.05;;
65855;SDS011;52631;42.208;24.656;2023-04-03T15:02:29;14.23;;;8.60;;
65855;SDS011;52631;42.208;24.656;2023-04-03T15:05:00;11.75;;;9.15;;
65855;SDS011;52631;42.208;24.656;2023-04-03T15:07:29;11.73;;;8.73;;
65855;SDS011;52631;42.208;24.656;2023-04-03T15:09:57;16.65;;;10.18;;
65855;SDS011;52631;42.208;24.656;2023-04-03T15:12:23;12.73;;;8.38;;
65855;SDS011;52631;42.208;24.656;2023-04-03T15:14:49;17.83;;;9.80;;
65855;SDS011;52631;42.208;24.656;2023-04-03T15:17:19;15.75;;;11.02;;
65855;SDS011;52631;42.208;24.656;2023-04-03T15:19:46;17.63;;;11.93;;
65855;SDS011;52631;42.208;24.656;2023-04-03T15:22:16;17.52;;;12.15;;
65855;SDS011;52631;42.208;24.656;2023-04-03T15:24:58;19.92;;;13.35;;
65855;SDS011;52631;42.208;24.656;2023-04-03T15:27:28;14.43;;;10.60;;
65855;SDS011;52631;42.208;24.656;2023-04-03T15:29:54;20.77;;;12.70;;
65855;SDS011;52631;42.208;24.656;2023-04-03T15:32:19;15.63;;;10.50;;
65855;SDS011;52631;42.208;24.656;2023-04-03T15:34:45;18.88;;;11.75;;
65855;SDS011;52631;42.208;24.656;2023-04-03T15:37:10;18.17;;;11.93;;
65855;SDS011;52631;42.208;24.656;2023-04-03T15:39:36;18.85;;;12.10;;
65855;SDS011;52631;42.208;24.656;2023-04-03T15:42:01;17.83;;;11.50;;
65855;SDS011;52631;42.208;24.656;2023-04-03T15:44:31;18.80;;;10.50;;
65855;SDS011;52631;42.208;24.656;2023-04-03T15:46:58;15.73;;;11.13;;
65855;SDS011;52631;42.208;24.656;2023-04-03T15:49:25;23.02;;;12.30;;
65855;SDS011;52631;42.208;24.656;2023-04-03T15:51:52;20.27;;;13.68;;
65855;SDS011;52631;42.208;24.656;2023-04-03T15:54:17;20.48;;;13.60;;
65855;SDS011;52631;42.208;24.656;2023-04-03T15:56:43;16.13;;;11.10;;
65855;SDS011;52631;42.208;24.656;2023-04-03T15:59:10;14.30;;;10.13;;
65855;SDS011;52631;42.208;24.656;2023-04-03T16:01:36;16.58;;;10.98;;
65855;SDS011;52631;42.208;24.656;2023-04-03T16:04:02;17.55;;;9.60;;
65855;SDS011;52631;42.208;24.656;2023-04-03T16:06:27;17.00;;;9.18;;
65855;SDS011;52631;42.208;24.656;2023-04-03T16:08:56;14.93;;;9.95;;
65855;SDS011;52631;42.208;24.656;2023-04-03T16:11:23;16.05;;;9.88;;
65855;SDS011;52631;42.208;24.656;2023-04-03T16:13:49;16.30;;;9.20;;
65855;SDS011;52631;42.208;24.656;2023-04-03T16:16:16;16.30;;;9.45;;
65855;SDS011;52631;42.208;24.656;2023-04-03T16:18:41;15.13;;;8.73;;
65855;SDS011;52631;42.208;24.656;2023-04-03T16:21:08;15.35;;;9.57;;
65855;SDS011;52631;42.208;24.656;2023-04-03T16:23:34;14.00;;;7.18;;
65855;SDS011;52631;42.208;24.656;2023-04-03T16:25:59;11.73;;;7.57;;
65855;SDS011;52631;42.208;24.656;2023-04-03T16:28:25;12.25;;;7.22;;
65855;SDS011;52631;42.208;24.656;2023-04-03T16:30:52;12.52;;;7.13;;
65855;SDS011;52631;42.208;24.656;2023-04-03T16:33:17;12.82;;;8.05;;
65855;SDS011;52631;42.208;24.656;2023-04-03T16:35:46;15.07;;;8.98;;
65855;SDS011;52631;42.208;24.656;2023-04-03T16:38:13;16.35;;;9.90;;
65855;SDS011;52631;42.208;24.656;2023-04-03T16:40:40;17.95;;;10.55;;
65855;SDS011;52631;42.208;24.656;2023-04-03T16:43:05;16.05;;;9.48;;